Time;durP1;ratioP1;P1;durP2;ratioP2;P2;SDS_P1;SDS_P2;PMS_P1;PMS_P2;Temp;Humidity;BMP_temperature;BMP_pressure;BME280_temperature;BME280_humidity;BME280_pressure;Samples;Min_cycle;Max_cycle;Signal;HPM_P1;HPM_P2
2023/08/05 06:18:07;;;;;;;4.60;2.42;;;;;;;21.50;71.78;99798.78;6277357;22;20015;31
2023/08/05 06:21:02;;;;;;;3.10;1.92;;;;;;;21.81;71.55;99814.28;6191616;23;20032;-76
2023/08/05 06:23:56;;;;;;;6.78;2.30;;;;;;;22.05;70.23;99801.34;6187538;23;20024;-77
2023/08/05 06:26:51;;;;;;;6.35;1.77;;;;;;;22.18;69.72;99805.16;6191966;23;20091;-77
2023/08/05 06:29:46;;;;;;;7.40;2.35;;;;;;;22.09;69.06;99797.34;6191788;23;20020;-77
2023/08/05 06:32:38;;;;;;;3.80;1.90;;;;;;;22.61;68.54;99814.41;6192489;23;20486;-76
2023/08/05 06:35:35;;;;;;;5.55;2.63;;;;;;;22.24;68.38;99809.03;6193430;23;20027;-78
2023/08/05 06:38:24;;;;;;;5.32;1.90;;;;;;;22.05;69.92;99806.88;6193446;23;20052;-79
2023/08/05 06:41:19;;;;;;;2.80;1.65;;;;;;;21.96;69.42;99815.69;6193053;23;20024;-78
2023/08/05 06:44:13;;;;;;;3.85;1.80;;;;;;;21.74;70.02;99803.25;6193473;23;20020;-77
2023/08/05 06:47:08;;;;;;;3.10;1.50;;;;;;;21.71;70.15;99806.88;6193200;23;20039;-78
2023/08/05 06:50:02;;;;;;;6.10;2.10;;;;;;;21.65;68.92;99811.28;6191811;23;20023;-76
2023/08/05 06:52:57;;;;;;;4.20;2.10;;;;;;;20.14;74.73;99803.72;6193506;23;20024;-77
2023/08/05 06:55:49;;;;;;;2.78;2.35;;;;;;;19.63;78.77;99802.34;6192535;23;20027;-79
2023/08/05 06:58:44;;;;;;;3.40;2.55;;;;;;;19.53;79.82;99807.88;6193135;23;20028;-75
2023/08/05 07:01:36;;;;;;;4.65;2.65;;;;;;;19.74;78.37;99818.88;6192779;23;20585;-77
2023/08/05 07:04:31;;;;;;;7.80;3.42;;;;;;;19.72;78.83;99820.44;6193806;23;20024;-77
2023/08/05 07:07:22;;;;;;;3.90;2.88;;;;;;;19.99;77.37;99816.03;6193456;23;20482;-77
2023/08/05 07:10:15;;;;;;;5.38;2.95;;;;;;;20.34;76.17;99826.13;6200381;23;20023;-78
2023/08/05 07:13:09;;;;;;;4.68;2.13;;;;;;;20.54;73.85;99815.38;6193716;23;20359;-76
2023/08/05 07:16:07;;;;;;;6.65;2.72;;;;;;;20.37;74.39;99817.03;6193668;23;20024;-77
2023/08/05 07:19:02;;;;;;;8.20;2.80;;;;;;;20.18;77.04;99815.53;6210497;23;20050;-75
2023/08/05 07:21:54;;;;;;;4.15;2.30;;;;;;;20.81;73.16;99808.09;6254114;23;20350;-78
2023/08/05 07:24:49;;;;;;;131.30;27.08;;;;;;;20.56;74.37;99811.03;6255643;23;20027;-75
2023/08/05 07:27:43;;;;;;;47.97;9.63;;;;;;;21.31;71.54;99803.72;6255896;23;20016;-77
2023/08/05 07:30:39;;;;;;;4.18;2.47;;;;;;;21.19;71.83;99817.28;6245536;23;20023;-76
2023/08/05 07:33:31;;;;;;;7.53;2.30;;;;;;;21.56;71.08;99817.31;6255887;23;20423;-78
2023/08/05 07:36:22;;;;;;;3.95;2.05;;;;;;;21.57;70.58;99823.63;6256946;23;20023;-79
2023/08/05 07:39:17;;;;;;;7.13;2.50;;;;;;;22.32;68.27;99820.78;6255891;23;20354;-78
2023/08/05 07:42:11;;;;;;;3.35;2.05;;;;;;;20.86;73.03;99827.00;6256625;23;20351;-77
2023/08/05 07:45:07;;;;;;;4.60;2.15;;;;;;;21.61;70.73;99827.94;6256335;23;20485;-77
2023/08/05 07:47:58;;;;;;;7.22;2.08;;;;;;;22.65;69.74;99844.09;6256681;23;20159;-79
2023/08/05 07:50:52;;;;;;;2.83;1.73;;;;;;;23.25;67.70;99845.94;6257107;23;20023;-78
2023/08/05 07:53:49;;;;;;;3.72;2.55;;;;;;;22.81;64.93;99852.56;6234947;23;20023;-80
2023/08/05 07:56:41;;;;;;;2.78;1.67;;;;;;;22.69;66.99;99858.66;6257416;23;20023;-78
2023/08/05 07:59:34;;;;;;;10.05;2.30;;;;;;;23.37;64.55;99857.19;6259905;23;20372;-82
2023/08/05 08:02:28;;;;;;;4.18;1.60;;;;;;;23.84;62.69;99855.19;6255004;23;20023;-78
2023/08/05 08:05:23;;;;;;;6.32;2.55;;;;;;;22.96;65.27;99848.38;6255521;23;20359;-78
2023/08/05 08:08:17;;;;;;;6.90;1.80;;;;;;;23.37;64.64;99848.88;6255240;23;20481;-79
2023/08/05 08:11:09;;;;;;;4.95;2.38;;;;;;;23.90;62.60;99849.94;6255441;23;20019;-78
2023/08/05 08:14:04;;;;;;;6.13;2.67;;;;;;;22.65;65.08;99852.41;6254746;23;20059;-78
2023/08/05 08:16:58;;;;;;;4.43;2.10;;;;;;;23.84;62.45;99857.19;6255742;23;20023;-85
2023/08/05 08:19:53;;;;;;;5.00;2.60;;;;;;;23.59;61.24;99857.66;6254609;23;20027;-85
2023/08/05 08:22:48;;;;;;;4.47;2.05;;;;;;;24.36;58.61;99846.22;6255540;23;20019;-86
2023/08/05 08:25:42;;;;;;;3.92;1.90;;;;;;;23.81;61.20;99856.06;6254921;23;20485;-86
2023/08/05 08:28:34;;;;;;;3.45;1.95;;;;;;;25.13;57.41;99857.59;6254013;23;20492;-85
2023/08/05 08:31:30;;;;;;;3.55;1.98;;;;;;;26.93;51.61;99859.34;6255658;23;20019;-86
2023/08/05 08:34:21;;;;;;;4.35;1.77;;;;;;;27.99;49.11;99863.31;6255149;23;20027;-86
2023/08/05 08:37:13;;;;;;;4.57;1.60;;;;;;;26.90;50.51;99853.88;6256045;23;20031;-85
2023/08/05 08:40:08;;;;;;;3.95;1.45;;;;;;;26.81;50.03;99857.31;6255178;23;20031;-85
2023/08/05 08:43:00;;;;;;;4.03;1.90;;;;;;;28.50;46.63;99858.25;6254388;23;20114;-84
2023/08/05 08:45:55;;;;;;;2.17;1.08;;;;;;;32.27;38.39;99862.94;6232715;23;20493;-85
2023/08/05 08:48:51;;;;;;;4.60;1.70;;;;;;;35.27;31.67;99860.13;6253962;23;20023;-84
2023/08/05 08:51:48;;;;;;;4.18;0.90;;;;;;;38.70;27.40;99862.25;6255283;23;20023;-85
2023/08/05 08:54:43;;;;;;;8.25;1.30;;;;;;;40.98;23.18;99872.66;6255792;23;20027;-86
2023/08/05 08:57:37;;;;;;;1.83;0.90;;;;;;;38.35;25.92;99853.72;6256028;23;20015;-85
2023/08/05 09:00:34;;;;;;;2.58;1.08;;;;;;;35.53;30.38;99845.84;6261138;23;20023;-85
2023/08/05 09:03:30;;;;;;;4.80;1.20;;;;;;;35.72;30.73;99852.63;6261005;23;20027;-85
2023/08/05 09:06:24;;;;;;;4.38;0.98;;;;;;;32.66;34.70;99853.13;6259912;23;20026;-85
2023/08/05 09:09:18;;;;;;;3.40;1.15;;;;;;;30.34;38.22;99839.28;6259977;23;20350;-83
2023/08/05 09:12:14;;;;;;;1.58;1.02;;;;;;;30.42;39.12;99846.13;6258986;23;20019;-83
2023/08/05 09:15:09;;;;;;;5.13;0.95;;;;;;;34.35;34.03;99851.97;6259831;23;20030;-85
2023/08/05 09:18:04;;;;;;;4.32;1.38;;;;;;;33.39;33.10;99843.72;6258466;23;20046;-86
2023/08/05 09:21:02;;;;;;;1.48;0.90;;;;;;;32.23;34.91;99846.25;6259162;23;20347;-86
2023/08/05 09:23:56;;;;;;;1.15;0.90;;;;;;;31.64;36.26;99853.03;6257940;23;20019;-86
2023/08/05 09:26:54;;;;;;;1.52;1.00;;;;;;;31.98;35.99;99854.47;6235546;23;20042;-85
2023/08/05 09:29:49;;;;;;;2.47;1.30;;;;;;;31.56;36.67;99851.81;6257635;23;20023;-83
2023/08/05 09:32:42;;;;;;;2.08;1.15;;;;;;;31.21;37.94;99838.31;6257945;23;20031;-84
2023/08/05 09:35:36;;;;;;;1.48;1.00;;;;;;;31.21;37.74;99835.50;6256089;23;20026;-85
2023/08/05 09:38:28;;;;;;;1.95;1.13;;;;;;;29.21;40.68;99836.59;6253873;23;20027;-84
2023/08/05 09:41:33;;;;;;;2.25;0.93;;;;;;;30.13;37.94;99843.84;6255800;23;20023;-84
2023/08/05 09:44:28;;;;;;;1.58;0.82;;;;;;;28.56;40.87;99839.63;6259610;23;20485;-85
2023/08/05 09:47:23;;;;;;;4.35;0.77;;;;;;;27.49;44.28;99839.94;6258610;23;20019;-85
2023/08/05 09:50:20;;;;;;;1.85;0.85;;;;;;;26.15;47.98;99835.81;6258952;23;20023;-84
2023/08/05 09:53:23;;;;;;;6.15;1.00;;;;;;;25.60;48.91;99834.16;6258619;23;20026;-84
2023/08/05 09:56:20;;;;;;;1.00;0.70;;;;;;;25.65;50.67;99839.22;6258544;23;20023;-85
2023/08/05 09:59:12;;;;;;;7.65;1.77;;;;;;;28.63;45.78;99856.16;6256869;23;20541;-86
2023/08/05 10:02:05;;;;;;;2.13;1.33;;;;;;;29.46;42.27;99841.19;6256492;23;20019;-87
2023/08/05 10:05:13;;;;;;;5.95;1.33;;;;;;;32.77;36.14;99852.53;6256013;23;20023;-86
2023/08/05 10:08:05;;;;;;;;;;;;;;;37.26;28.13;99867.41;6256727;23;20019;-82
2023/08/05 10:10:56;;;;;;;;;;;;;;;41.34;21.92;99876.66;6258682;23;19911;-83
2023/08/05 10:13:47;;;;;;;;;;;;;;;41.72;21.12;99884.97;6259221;23;19907;-83
2023/08/05 10:16:39;;;;;;;;;;;;;;;36.98;25.76;99878.00;6259459;23;19911;-81
2023/08/05 10:19:32;;;;;;;;;;;;;;;39.70;23.30;99875.38;6259719;23;19907;-83
2023/08/05 10:22:27;;;;;;;;;;;;;;;42.15;20.35;99879.59;6259702;23;19911;-82
2023/08/05 10:25:37;;;;;;;;;;;;;;;43.25;19.13;99870.84;6260882;23;20654;-82
2023/08/05 10:28:30;;;;;;;;;;;;;;;37.43;25.57;99863.75;6261571;23;19908;-82
2023/08/05 10:31:27;;;;;;;;;;;;;;;35.07;29.32;99860.25;6261534;23;19911;-81
2023/08/05 10:34:20;;;;;;;;;;;;;;;32.32;33.74;99855.84;6259091;23;19907;-82
2023/08/05 10:37:10;;;;;;;;;;;;;;;31.50;35.07;99848.88;6257606;23;19937;-82
2023/08/05 10:40:05;;;;;;;;;;;;;;;31.08;37.17;99843.41;6256838;23;19907;-82
2023/08/05 10:42:57;;;;;;;;;;;;;;;31.40;36.42;99850.97;6258794;23;19915;-82
2023/08/05 10:45:49;;;;;;;;;;;;;;;31.92;35.47;99856.38;6258041;23;20338;-81
2023/08/05 10:48:51;;;;;;;;;;;;;;;32.50;33.50;99845.19;6259252;23;19908;-83
2023/08/05 10:51:41;;;;;;;;;;;;;;;33.77;31.30;99845.50;6260178;23;19911;-82
2023/08/05 10:54:33;;;;;;;;;;;;;;;31.46;35.60;99841.88;6258148;23;19907;-81
2023/08/05 10:57:38;;;;;;;;;;;;;;;30.34;38.02;99839.28;6257827;23;20326;-81
2023/08/05 11:00:39;;;;;;;;;;;;;;;33.39;32.27;99845.75;6260677;23;20453;-81
2023/08/05 11:03:41;;;;;;;;;;;;;;;33.75;30.94;99848.03;6259456;23;20246;-81
2023/08/05 11:06:37;;;;;;;;;;;;;;;32.62;34.45;99846.13;6259938;23;19908;-81
2023/08/05 11:09:27;;;;;;;;;;;;;;;31.03;37.36;99846.06;6259093;23;19907;-81
2023/08/05 11:12:14;;;;;;;;;;;;;;;30.31;38.19;99843.03;6258949;23;20322;-82
2023/08/05 11:15:06;;;;;;;;;;;;;;;30.53;37.16;99843.59;6259445;23;19907;-81
2023/08/05 11:17:56;;;;;;;;;;;;;;;32.18;34.84;99849.75;6257678;23;20246;-81
2023/08/05 11:20:47;;;;;;;;;;;;;;;31.21;35.34;99843.94;6258193;23;19911;-82
2023/08/05 11:23:37;;;;;;;;;;;;;;;30.47;36.64;99848.31;6258889;23;19911;-81
2023/08/05 11:26:30;;;;;;;;;;;;;;;30.53;36.48;99852.00;6260659;23;19907;-81
2023/08/05 11:29:17;;;;;;;;;;;;;;;30.31;36.51;99850.66;6258031;23;19907;-81
2023/08/05 11:32:06;;;;;;;;;;;;;;;29.40;38.07;99842.28;6258495;23;19907;-81
2023/08/05 11:35:05;;;;;;;;;;;;;;;28.95;39.32;99838.13;6258437;23;20268;-82
2023/08/05 11:37:54;;;;;;;;;;;;;;;29.06;38.76;99837.66;6256480;23;19907;-81
2023/08/05 11:40:42;;;;;;;;;;;;;;;28.25;40.21;99850.81;6255924;23;19907;-83
2023/08/05 11:43:34;;;;;;;;;;;;;;;27.95;41.02;99855.09;6255536;23;19907;-83
2023/08/05 11:46:30;;;;;;;;;;;;;;;28.04;41.26;99854.34;6254879;23;19908;-80
2023/08/05 11:49:22;;;;;;;;;;;;;;;28.40;42.24;99863.00;6254853;23;19907;-80
2023/08/05 11:52:14;;;;;;;;;;;;;;;27.73;42.81;99853.53;6255367;23;19911;-81
2023/08/05 11:55:07;;;;;;;;;;;;;;;27.45;43.52;99852.44;6255470;23;19907;-83
2023/08/05 11:58:03;;;;;;;;;;;;;;;27.22;43.99;99857.22;6254489;23;19907;-79
2023/08/05 12:00:59;;;;;;;;;;;;;;;26.96;45.51;99843.72;6254663;23;19907;-81
2023/08/05 12:03:49;;;;;;;;;;;;;;;26.76;46.47;99853.09;6254992;23;19907;-82
2023/08/05 12:06:39;;;;;;;;;;;;;;;26.60;46.25;99852.41;6254866;23;19907;-80
2023/08/05 12:09:28;;;;;;;;;;;;;;;26.52;46.38;99856.63;6254995;23;19911;-79
2023/08/05 12:12:20;;;;;;;;;;;;;;;26.42;46.74;99855.72;6259809;23;20242;-82
2023/08/05 12:15:24;;;;;;;;;;;;;;;26.28;47.56;99859.72;6262459;23;19911;-84
2023/08/05 12:18:19;;;;;;;;;;;;;;;26.44;48.10;99866.44;6261010;23;19937;-85
2023/08/05 12:21:08;;;;;;;;;;;;;;;26.61;47.48;99865.13;6259632;23;19912;-84
2023/08/05 12:23:58;;;;;;;;;;;;;;;26.77;47.35;99873.38;6259563;23;19911;-85
2023/08/05 12:26:47;;;;;;;;;;;;;;;27.12;46.35;99871.53;6262715;23;19907;-89
2023/08/05 12:29:39;;;;;;;;;;;;;;;27.06;46.12;99864.94;6261943;23;20323;-88
2023/08/05 12:32:26;;;;;;;;;;;;;;;27.17;45.69;99877.28;6264607;23;19907;-89
2023/08/05 12:35:16;;;;;;;;;;;;;;;27.33;45.74;99876.38;6264868;23;19907;-87
2023/08/05 12:38:08;;;;;;;;;;;;;;;27.18;45.19;99884.44;6264031;23;19907;-84
2023/08/05 12:40:55;;;;;;;;;;;;;;;27.40;44.62;99887.31;6265583;23;19911;-84
2023/08/05 12:43:43;;;;;;;;;;;;;;;27.90;43.53;99889.19;6261814;23;19907;-84
2023/08/05 12:46:35;;;;;;;;;;;;;;;28.44;41.92;99885.28;6263568;23;20326;-85
2023/08/05 12:49:27;;;;;;;;;;;;;;;28.66;39.56;99888.78;6262766;23;19908;-85
2023/08/05 12:52:19;;;;;;;;;;;;;;;28.54;38.70;99886.88;6268622;23;19907;-85
2023/08/05 12:55:13;;;;;;;;;;;;;;;28.61;39.68;99881.00;6268037;23;19907;-87
2023/08/05 12:58:05;;;;;;;;;;;;;;;28.61;40.74;99881.00;6267755;23;20330;-87
2023/08/05 13:00:55;;;;;;;;;;;;;;;29.01;38.26;99874.66;6266349;23;19911;-87
2023/08/05 13:03:47;;;;;;;;;;;;;;;29.28;38.86;99871.94;6266129;23;19907;-88
2023/08/05 13:06:32;;;;;;;;;;;;;;;29.85;36.99;99875.94;6265977;23;20330;-86
2023/08/05 13:09:19;;;;;;;;;;;;;;;30.65;36.58;99881.16;6264901;23;19907;-86
2023/08/05 13:12:11;;;;;;;;;;;;;;;31.33;33.81;99867.44;6265141;23;19908;-86
2023/08/05 13:15:03;;;;;;;;;;;;;;;30.56;36.50;99867.16;6264237;23;19911;-86
2023/08/05 13:17:56;;;;;;;;;;;;;;;29.42;37.17;99871.38;6267113;23;19907;-89
2023/08/05 13:20:48;;;;;;;;;;;;;;;28.85;39.58;99867.31;6264391;23;19912;-87
2023/08/05 13:23:38;;;;;;;;;;;;;;;28.54;40.30;99864.50;6263111;23;19907;-86
2023/08/05 13:26:29;;;;;;;;;;;;;;;28.48;41.04;99869.91;6263430;23;20238;-86
2023/08/05 13:29:18;;;;;;;;;;;;;;;28.18;41.18;99867.09;6263367;23;20265;-86
2023/08/05 13:35:50;;;;;;;;;;;;;;;28.36;41.37;99881.94;6261491;23;20474;-85
2023/08/05 13:38:42;;;;;;;;;;;;;;;28.80;39.74;99882.66;6259435;23;19907;-85
2023/08/05 13:41:31;;;;;;;;;;;;;;;28.72;39.50;99881.41;6262281;23;19912;-86
2023/08/05 13:44:23;;;;;;;;;;;;;;;29.22;39.10;99879.41;6260299;23;20322;-84
2023/08/05 13:47:11;;;;;;;;;;;;;;;29.42;38.41;99873.41;6261919;23;20245;-87
2023/08/05 13:50:00;;;;;;;;;;;;;;;29.63;37.88;99869.69;6260223;23;20474;-88
2023/08/05 13:52:52;;;;;;;;;;;;;;;29.94;37.76;99866.75;6261682;23;19907;-90
2023/08/05 13:55:44;;;;;;;;;;;;;;;29.78;38.23;99865.03;6260911;23;19907;-86
2023/08/05 13:58:36;;;;;;;;;;;;;;;29.67;37.85;99865.47;6259939;23;20254;-86
2023/08/05 14:01:28;;;;;;;;;;;;;;;29.84;37.81;99867.97;6261054;23;19911;-86
2023/08/05 14:04:22;;;;;;;;;;;;;;;29.49;38.23;99865.47;6262096;23;19907;-85
2023/08/05 14:07:14;;;;;;;;;;;;;;;29.14;38.50;99878.13;6261779;23;19908;-85
2023/08/05 14:10:05;;;;;;;;;;;;;;;28.64;39.68;99882.91;6257845;23;19907;-82
2023/08/05 14:12:57;;;;;;;;;;;;;;;28.30;40.71;99878.19;6258499;23;19907;-82
2023/08/05 14:15:51;;;;;;;;;;;;;;;27.90;41.40;99877.25;6258377;23;19907;-84
2023/08/05 14:18:43;;;;;;;;;;;;;;;28.07;41.68;99864.66;6257077;23;19907;-85
2023/08/05 14:21:35;;;;;;;;;;;;;;;28.02;41.90;99866.00;6257163;23;19907;-88
2023/08/05 14:24:25;;;;;;;;;;;;;;;27.98;42.67;99861.78;6257286;23;19907;-89
2023/08/05 14:27:16;;;;;;;;;;;;;;;27.96;41.95;99853.84;6258329;23;19907;-87
2023/08/05 14:30:07;;;;;;;;;;;;;;;27.89;42.25;99854.09;6256686;23;19907;-91
2023/08/05 14:32:59;;;;;;;;;;;;;;;27.64;42.06;99848.63;6256648;23;19907;-89
2023/08/05 14:36:27;;;;;;;;;;;;;;;27.38;42.43;99847.13;6256663;23;19907;-89
2023/08/05 14:39:19;;;;;;;;;;;;;;;27.32;39.63;99838.53;6163488;23;20324;-87
2023/08/05 14:42:11;;;;;;;;;;;;;;;27.33;39.58;99842.88;6163550;23;19913;-88
2023/08/05 14:45:03;;;;;;;;;;;;;;;27.54;40.76;99838.59;6255453;23;19911;-88
2023/08/05 14:48:01;;;;;;;;;;;;;;;27.40;41.07;99839.84;6255592;23;20246;-88
2023/08/05 14:50:51;;;;;;;;;;;;;;;27.00;41.30;99839.59;6257499;23;19907;-88
2023/08/05 14:54:03;;;;;;;;;;;;;;;27.26;41.28;99839.53;6257221;23;20278;-88
2023/08/05 14:56:53;;;;;;;;;;;;;;;27.65;40.30;99844.59;6256302;23;19907;-89
2023/08/05 14:59:42;;;;;;;;;;;;;;;27.87;39.02;99844.63;6256578;23;19907;-88
2023/08/05 15:02:31;;;;;;;;;;;;;;;27.97;39.47;99843.44;6256564;23;19912;-88
2023/08/05 15:05:25;;;;;;;;;;;;;;;27.86;40.24;99840.25;6256817;23;19908;-88
2023/08/05 15:08:19;;;;;;;;;;;;;;;27.91;40.64;99848.84;6255764;23;20242;-89
2023/08/05 15:11:10;;;;;;;;;;;;;;;28.07;39.94;99845.06;6255513;23;19908;-89
2023/08/05 15:14:04;;;;;;;;;;;;;;;28.23;40.39;99838.53;6254687;23;19911;-85
2023/08/05 15:16:56;;;;;;;;;;;;;;;28.28;38.73;99844.31;6256518;23;19908;-86
2023/08/05 15:19:48;;;;;;;;;;;;;;;28.21;39.57;99843.78;6255388;23;19911;-86
2023/08/05 15:22:40;;;;;;;;;;;;;;;27.32;39.40;99832.94;6259250;23;19912;-86
2023/08/05 15:25:32;;;;;;;;;;;;;;;27.24;39.99;99840.78;6267762;23;19907;-86
2023/08/05 15:28:24;;;;;;;;;;;;;;;27.08;41.75;99835.31;6266928;23;19912;-86
2023/08/05 15:31:22;;;;;;;;;;;;;;;26.97;41.04;99832.09;6267309;23;19907;-86
2023/08/05 15:34:14;;;;;;;;;;;;;;;26.65;41.25;99835.91;6266833;23;19911;-85
2023/08/05 15:37:06;;;;;;;;;;;;;;;26.75;41.00;99834.00;6269057;23;19907;-85
2023/08/05 15:39:56;;;;;;;;;;;;;;;26.65;42.22;99829.53;6267407;23;19907;-85
2023/08/05 15:42:45;;;;;;;;;;;;;;;26.62;42.20;99827.63;6263981;23;20486;-85
2023/08/05 15:45:37;;;;;;;;;;;;;;;26.58;42.08;99829.75;6263479;23;19907;-86
2023/08/05 15:48:29;;;;;;;;;;;;;;;26.66;42.08;99823.53;6264791;23;19907;-86
2023/08/05 15:51:21;;;;;;;;;;;;;;;26.61;43.32;99832.44;6265064;23;19907;-86
2023/08/05 15:54:13;;;;;;;;;;;;;;;26.58;42.71;99830.53;6264925;23;19908;-85
2023/08/05 15:57:04;;;;;;;;;;;;;;;26.38;43.47;99827.16;6264210;23;20318;-86
2023/08/05 15:59:56;;;;;;;;;;;;;;;26.36;42.54;99818.47;6263556;23;20262;-86
2023/08/05 16:02:46;;;;;;;;;;;;;;;26.07;42.85;99824.06;6263981;23;19916;-86
2023/08/05 16:05:38;;;;;;;;;;;;;;;26.25;43.10;99838.31;6263372;23;19907;-86
2023/08/05 16:08:30;;;;;;;;;;;;;;;26.29;44.63;99838.97;6263256;23;19908;-86
2023/08/05 16:11:20;;;;;;;;;;;;;;;26.23;44.61;99839.97;6262730;23;19907;-86
2023/08/05 16:14:12;;;;;;;;;;;;;;;26.21;44.70;99840.38;6261529;23;19907;-86
2023/08/05 16:17:02;;;;;;;;;;;;;;;26.26;46.26;99848.22;6262646;23;19911;-86
2023/08/05 16:19:57;;;;;;;;;;;;;;;26.17;44.68;99850.84;6261777;23;19912;-85
2023/08/05 16:22:49;;;;;;;;;;;;;;;26.17;46.61;99855.63;6262265;23;19916;-86
2023/08/05 16:25:38;;;;;;;;;;;;;;;26.15;47.29;99847.75;6261876;23;20322;-86
2023/08/05 16:28:30;;;;;;;;;;;;;;;26.18;47.40;99846.84;6261148;23;19907;-86
2023/08/05 16:31:22;;;;;;;;;;;;;;;26.15;46.56;99838.59;6260931;23;19907;-85
2023/08/05 16:34:14;;;;;;;;;;;;;;;26.11;48.16;99838.69;6260574;23;20342;-85
2023/08/05 16:37:06;;;;;;;;;;;;;;;26.11;46.79;99844.25;6261381;23;19907;-85
2023/08/05 16:39:58;;;;;;;;;;;;;;;26.08;48.31;99839.56;6260206;23;19916;-86
2023/08/05 16:42:47;;;;;;;;;;;;;;;26.11;47.65;99846.28;6261005;23;19911;-85
2023/08/05 16:45:39;;;;;;;;;;;;;;;26.06;47.72;99842.00;6261650;23;19907;-86
2023/08/05 16:48:26;;;;;;;;;;;;;;;26.10;49.15;99836.34;6261141;23;19908;-87
2023/08/05 16:51:16;;;;;;;;;;;;;;;26.03;47.30;99830.97;6260468;23;19907;-86
2023/08/05 16:54:07;;;;;;;;;;;;;;;26.04;48.25;99833.31;6260169;23;19907;-86
2023/08/05 16:56:59;;;;;;;;;;;;;;;26.05;48.89;99848.03;6259449;23;19907;-87
2023/08/05 17:03:23;;;;;;;;;;;;;;;26.08;49.47;99834.00;6257290;23;19912;-88
2023/08/05 17:06:10;;;;;;;;;;;;;;;26.08;50.33;99820.06;6258476;23;20258;-87
2023/08/05 17:09:01;;;;;;;;;;;;;;;26.05;49.57;99817.38;6257427;23;19908;-87
2023/08/05 17:11:53;;;;;;;;;;;;;;;26.06;50.71;99828.06;6258526;23;19907;-87
2023/08/05 17:14:46;;;;;;;;;;;;;;;26.05;50.16;99823.75;6257947;23;19907;-87
2023/08/05 17:17:40;;;;;;;;;;;;;;;26.05;51.32;99829.31;6236075;23;19907;-87
2023/08/05 17:20:30;;;;;;;;;;;;;;;26.07;51.46;99823.28;6258242;23;19907;-88
2023/08/05 17:23:22;;;;;;;;;;;;;;;26.10;51.91;99823.19;6257305;23;19912;-87
2023/08/05 17:26:14;;;;;;;;;;;;;;;26.03;51.03;99828.19;6256960;23;20091;-88
2023/08/05 17:29:06;;;;;;;;;;;;;;;25.92;50.78;99817.34;6256876;23;19907;-87
2023/08/05 17:31:53;;;;;;;;;;;;;;;25.90;52.05;99837.31;6257542;23;20246;-88
2023/08/05 17:34:45;;;;;;;;;;;;;;;25.98;52.44;99821.16;6257886;23;20510;-88
2023/08/05 17:37:35;;;;;;;;;;;;;;;25.97;52.53;99830.72;6257566;23;19937;-89
2023/08/05 17:40:26;;;;;;;;;;;;;;;25.99;52.81;99822.72;6256862;23;19907;-89
2023/08/05 17:43:18;;;;;;;;;;;;;;;25.95;51.94;99824.84;6256651;23;19912;-88
2023/08/05 17:46:10;;;;;;;;;;;;;;;25.95;52.39;99831.19;6257176;23;19907;-86
2023/08/05 17:49:02;;;;;;;;;;;;;;;25.88;52.08;99836.94;6257206;23;19907;-87
2023/08/05 17:51:51;;;;;;;;;;;;;;;25.91;52.34;99849.19;6257911;23;19912;-88
2023/08/05 17:54:54;;;;;;;;;;;;;;;25.92;52.00;99851.56;6257423;23;19907;-87
2023/08/05 18:01:18;;;;;;;;;;;;;;;25.92;52.44;99851.56;6256892;23;19903;-88
2023/08/05 18:04:10;;;;;;;;;;;;;;;25.88;52.39;99848.09;6255765;23;20242;-86
2023/08/05 18:06:59;;;;;;;;;;;;;;;25.85;52.45;99846.16;6257598;23;20239;-87
2023/08/05 18:09:51;;;;;;;;;;;;;;;25.81;53.05;99848.28;6256369;23;19908;-86
2023/08/05 18:12:43;;;;;;;;;;;;;;;25.78;53.11;99851.16;6257470;23;19939;-87
2023/08/05 18:19:09;;;;;;;;;;;;;;;25.60;53.57;99843.28;6249881;23;19908;-87
2023/08/05 18:22:01;;;;;;;;;;;;;;;25.55;53.35;99839.03;6259007;23;19915;-86
2023/08/05 18:24:53;;;;;;;;;;;;;;;25.46;53.89;99830.50;6258770;23;20307;-86
2023/08/05 18:27:45;;;;;;;;;;;;;;;25.42;54.41;99829.03;6256835;23;19912;-87
2023/08/05 18:30:35;;;;;;;;;;;;;;;25.44;54.31;99832.16;6257549;23;19907;-88
2023/08/05 18:33:24;;;;;;;;;;;;;;;25.36;55.21;99830.78;6262742;23;19908;-89
2023/08/05 18:36:16;;;;;;;;;;;;;;;25.29;55.64;99826.19;6270261;23;19907;-89
2023/08/05 18:39:08;;;;;;;;;;;;;;;25.30;55.59;99819.38;6269839;23;19907;-89
2023/08/05 18:41:59;;;;;;;;;;;;;;;25.25;55.96;99817.13;6268194;23;19912;-89
2023/08/05 18:44:51;;;;;;;;;;;;;;;25.20;56.31;99814.88;6268574;23;20271;-88
2023/08/05 18:47:41;;;;;;;;;;;;;;;25.19;56.22;99821.69;6267908;23;19907;-88
2023/08/05 18:50:30;;;;;;;;;;;;;;;25.29;56.18;99820.63;6266462;23;19907;-88
2023/08/05 18:53:21;;;;;;;;;;;;;;;25.37;56.29;99824.78;6266849;23;19907;-88
2023/08/05 18:56:10;;;;;;;;;;;;;;;25.39;56.39;99818.78;6271396;23;19907;-90
2023/08/05 18:58:59;;;;;;;;;;;;;;;25.40;56.39;99823.88;6271645;23;19907;-88
2023/08/05 19:01:52;;;;;;;;;;;;;;;25.41;56.09;99833.81;6269283;23;19912;-89
2023/08/05 19:04:47;;;;;;;;;;;;;;;25.42;56.40;99829.81;6266107;23;20330;-89
2023/08/05 19:07:39;;;;;;;;;;;;;;;25.36;56.33;99823.22;6264109;23;19907;-87
2023/08/05 19:10:31;;;;;;;;;;;;;;;25.30;56.87;99838.88;6266235;23;19908;-87
2023/08/05 19:13:23;;;;;;;;;;;;;;;25.13;57.68;99828.97;6269342;23;19912;-90
2023/08/05 19:16:13;;;;;;;;;;;;;;;25.16;57.63;99830.09;6262060;23;19908;-88
2023/08/05 19:19:04;;;;;;;;;;;;;;;25.06;58.16;99835.50;6262347;23;19911;-90
2023/08/05 19:21:54;;;;;;;;;;;;;;;24.80;59.36;99842.06;6262437;23;20334;-89
2023/08/05 19:24:46;;;;;;;;;;;;;;;24.66;59.63;99837.63;6264647;23;19907;-87
2023/08/05 19:27:38;;;;;;;;;;;;;;;24.61;59.51;99840.91;6264926;23;19907;-88
2023/08/05 19:30:25;;;;;;;;;;;;;;;24.77;59.09;99842.16;6264804;23;20330;-88
2023/08/05 19:33:17;;;;;;;;;;;;;;;24.84;58.68;99851.09;6265489;23;19907;-88
2023/08/05 19:36:14;;;;;;;;;;;;;;;24.87;58.39;99850.28;6264627;23;20325;-88
2023/08/05 19:39:04;;;;;;;;;;;;;;;24.86;58.38;99853.44;6262792;23;19908;-88
2023/08/05 19:41:57;;;;;;;;;;;;;;;24.90;58.24;99849.41;6264015;23;19911;-90
2023/08/05 19:44:47;;;;;;;;;;;;;;;24.65;57.61;99849.16;6260310;23;19908;-89
2023/08/05 19:47:39;;;;;;;;;;;;;;;24.44;58.71;99850.41;6261642;23;20334;-88
2023/08/05 19:50:29;;;;;;;;;;;;;;;24.31;58.38;99846.75;6261047;23;19908;-88
2023/08/05 19:53:21;;;;;;;;;;;;;;;24.30;59.33;99847.94;6260563;23;20242;-87
2023/08/05 19:56:10;;;;;;;;;;;;;;;24.21;59.70;99859.66;6261044;23;19907;-88
2023/08/05 19:59:00;;;;;;;;;;;;;;;24.32;59.37;99861.41;6260893;23;19907;-88
2023/08/05 20:01:52;;;;;;;;;;;;;;;24.28;58.77;99861.47;6261302;23;19908;-87
2023/08/05 20:04:44;;;;;;;;;;;;;;;24.21;58.95;99858.88;6261266;23;19911;-87
2023/08/05 20:07:36;;;;;;;;;;;;;;;24.10;59.42;99866.59;6261549;23;19907;-87
2023/08/05 20:10:26;;;;;;;;;;;;;;;24.17;58.84;99863.72;6260628;23;19907;-87
2023/08/05 20:13:17;;;;;;;;;;;;;;;24.33;58.89;99863.75;6261062;23;19908;-87
2023/08/05 20:16:07;;;;;;;;;;;;;;;24.38;58.27;99866.03;6259269;23;20318;-87
2023/08/05 20:18:58;;;;;;;;;;;;;;;24.43;56.85;99864.75;6258960;23;19907;-87
2023/08/05 20:21:50;;;;;;;;;;;;;;;24.40;57.74;99860.84;6259391;23;19907;-87
2023/08/05 20:24:42;;;;;;;;;;;;;;;24.40;56.13;99852.50;6258767;23;19908;-87
2023/08/05 20:27:34;;;;;;;;;;;;;;;24.30;55.39;99853.50;6259056;23;19911;-87
2023/08/05 20:30:44;;;;;;;;;;;;;;;24.25;56.22;99860.34;6258165;23;20323;-87
2023/08/05 20:33:35;;;;;;;;;;;;;;;24.24;56.17;99846.88;6258923;23;19907;-87
2023/08/05 20:36:25;;;;;;;;;;;;;;;23.90;57.60;99851.91;6258389;23;19911;-87
2023/08/05 20:39:17;;;;;;;;;;;;;;;23.74;57.41;99847.84;6258091;23;19907;-87
2023/08/05 20:42:09;;;;;;;;;;;;;;;23.60;57.67;99852.88;6258090;23;19912;-87
2023/08/05 20:44:58;;;;;;;;;;;;;;;23.62;58.36;99856.03;6257821;23;19907;-87
2023/08/05 20:47:50;;;;;;;;;;;;;;;23.47;58.53;99855.47;6257701;23;20319;-87
2023/08/05 20:50:40;;;;;;;;;;;;;;;23.34;58.54;99852.50;6257884;23;19904;-86
2023/08/05 20:53:32;;;;;;;;;;;;;;;23.33;57.88;99845.38;6258432;23;20226;-86
2023/08/05 20:56:20;;;;;;;;;;;;;;;23.47;57.54;99849.16;6257869;23;19907;-86
2023/08/05 20:59:10;;;;;;;;;;;;;;;23.40;57.31;99844.50;6256269;23;19907;-86
2023/08/05 21:02:01;;;;;;;;;;;;;;;23.32;57.57;99843.03;6256241;23;19908;-85
2023/08/05 21:04:51;;;;;;;;;;;;;;;23.25;58.22;99843.16;6256785;23;19907;-86